sensor_id;sensor_type;location;lat;lon;timestamp;temperature;humidity
66096;SHT31;53861;53.422;14.530;2023-04-24T00:01:33;8.39;94.90
66096;SHT31;53861;53.422;14.530;2023-04-24T00:04:04;8.28;93.67
66096;SHT31;53861;53.422;14.530;2023-04-24T00:06:32;8.33;93.54
66096;SHT31;53861;53.422;14.530;2023-04-24T00:09:00;8.06;92.68
66096;SHT31;53861;53.422;14.530;2023-04-24T00:11:45;8.12;92.53
66096;SHT31;53861;53.422;14.530;2023-04-24T00:14:13;8.02;92.42
66096;SHT31;53861;53.422;14.530;2023-04-24T00:16:48;8.09;92.77
66096;SHT31;53861;53.422;14.530;2023-04-24T00:19:26;8.20;92.98
66096;SHT31;53861;53.422;14.530;2023-04-24T00:21:58;8.28;93.34
66096;SHT31;53861;53.422;14.530;2023-04-24T00:24:34;8.28;93.16
66096;SHT31;53861;53.422;14.530;2023-04-24T00:27:07;8.33;92.72
66096;SHT31;53861;53.422;14.530;2023-04-24T00:29:35;8.36;93.01
66096;SHT31;53861;53.422;14.530;2023-04-24T00:32:03;8.33;93.07
66096;SHT31;53861;53.422;14.530;2023-04-24T00:34:34;8.33;93.32
66096;SHT31;53861;53.422;14.530;2023-04-24T00:37:04;8.34;93.93
66096;SHT31;53861;53.422;14.530;2023-04-24T00:39:33;8.30;93.54
66096;SHT31;53861;53.422;14.530;2023-04-24T00:42:07;8.36;93.46
66096;SHT31;53861;53.422;14.530;2023-04-24T00:44:37;8.34;93.03
66096;SHT31;53861;53.422;14.530;2023-04-24T00:47:08;8.30;93.10
66096;SHT31;53861;53.422;14.530;2023-04-24T00:49:43;8.25;93.51
66096;SHT31;53861;53.422;14.530;2023-04-24T00:52:13;8.39;94.10
66096;SHT31;53861;53.422;14.530;2023-04-24T00:54:43;8.39;93.52
66096;SHT31;53861;53.422;14.530;2023-04-24T00:57:16;8.36;93.53
66096;SHT31;53861;53.422;14.530;2023-04-24T00:59:44;8.37;93.64
66096;SHT31;53861;53.422;14.530;2023-04-24T01:02:14;8.26;93.18
66096;SHT31;53861;53.422;14.530;2023-04-24T01:04:49;8.25;93.57
66096;SHT31;53861;53.422;14.530;2023-04-24T01:07:23;8.44;94.92
66096;SHT31;53861;53.422;14.530;2023-04-24T01:09:57;8.60;95.17
66096;SHT31;53861;53.422;14.530;2023-04-24T01:12:24;8.67;94.81
66096;SHT31;53861;53.422;14.530;2023-04-24T01:14:57;8.80;95.08
66096;SHT31;53861;53.422;14.530;2023-04-24T01:17:26;8.94;95.71
66096;SHT31;53861;53.422;14.530;2023-04-24T01:19:57;9.02;95.57
66096;SHT31;53861;53.422;14.530;2023-04-24T01:22:33;9.01;95.36
66096;SHT31;53861;53.422;14.530;2023-04-24T01:25:04;9.07;95.29
66096;SHT31;53861;53.422;14.530;2023-04-24T01:27:39;9.02;95.13
66096;SHT31;53861;53.422;14.530;2023-04-24T01:30:10;9.04;94.92
66096;SHT31;53861;53.422;14.530;2023-04-24T01:32:48;9.10;94.92
66096;SHT31;53861;53.422;14.530;2023-04-24T01:35:23;9.11;95.03
66096;SHT31;53861;53.422;14.530;2023-04-24T01:37:59;9.14;95.08
66096;SHT31;53861;53.422;14.530;2023-04-24T01:40:30;9.22;94.89
66096;SHT31;53861;53.422;14.530;2023-04-24T01:43:03;9.21;95.00
66096;SHT31;53861;53.422;14.530;2023-04-24T01:45:31;9.19;95.03
66096;SHT31;53861;53.422;14.530;2023-04-24T01:48:02;9.23;95.06
66096;SHT31;53861;53.422;14.530;2023-04-24T01:50:37;9.26;94.97
66096;SHT31;53861;53.422;14.530;2023-04-24T01:53:11;9.15;95.14
66096;SHT31;53861;53.422;14.530;2023-04-24T01:55:39;9.16;95.09
66096;SHT31;53861;53.422;14.530;2023-04-24T01:58:18;9.23;95.04
66096;SHT31;53861;53.422;14.530;2023-04-24T02:00:50;9.21;95.01
66096;SHT31;53861;53.422;14.530;2023-04-24T02:03:19;9.25;95.07
66096;SHT31;53861;53.422;14.530;2023-04-24T02:05:51;9.21;95.05
66096;SHT31;53861;53.422;14.530;2023-04-24T02:08:33;9.12;95.36
66096;SHT31;53861;53.422;14.530;2023-04-24T02:11:03;9.08;95.42
66096;SHT31;53861;53.422;14.530;2023-04-24T02:13:35;9.12;95.48
66096;SHT31;53861;53.422;14.530;2023-04-24T02:16:13;9.16;95.34
66096;SHT31;53861;53.422;14.530;2023-04-24T02:18:43;9.11;95.32
66096;SHT31;53861;53.422;14.530;2023-04-24T02:21:14;9.05;95.43
66096;SHT31;53861;53.422;14.530;2023-04-24T02:23:44;9.11;95.56
66096;SHT31;53861;53.422;14.530;2023-04-24T02:26:14;9.07;95.43
66096;SHT31;53861;53.422;14.530;2023-04-24T02:28:50;9.08;95.41
66096;SHT31;53861;53.422;14.530;2023-04-24T02:31:23;9.12;95.43
66096;SHT31;53861;53.422;14.530;2023-04-24T02:33:57;9.08;95.30
66096;SHT31;53861;53.422;14.530;2023-04-24T02:36:33;9.00;95.42
66096;SHT31;53861;53.422;14.530;2023-04-24T02:39:05;9.05;95.44
66096;SHT31;53861;53.422;14.530;2023-04-24T02:41:38;9.02;95.26
66096;SHT31;53861;53.422;14.530;2023-04-24T02:44:09;9.04;95.36
66096;SHT31;53861;53.422;14.530;2023-04-24T02:46:39;9.10;95.30
66096;SHT31;53861;53.422;14.530;2023-04-24T02:49:07;9.12;95.17
66096;SHT31;53861;53.422;14.530;2023-04-24T02:51:37;9.08;95.24
66096;SHT31;53861;53.422;14.530;2023-04-24T02:54:08;9.04;95.35
66096;SHT31;53861;53.422;14.530;2023-04-24T02:56:40;9.01;95.47
66096;SHT31;53861;53.422;14.530;2023-04-24T02:59:07;9.05;95.30
66096;SHT31;53861;53.422;14.530;2023-04-24T03:01:38;9.10;95.28
66096;SHT31;53861;53.422;14.530;2023-04-24T03:04:06;9.07;95.21
66096;SHT31;53861;53.422;14.530;2023-04-24T03:06:33;9.12;95.34
66096;SHT31;53861;53.422;14.530;2023-04-24T03:09:09;9.16;95.27
66096;SHT31;53861;53.422;14.530;2023-04-24T03:11:39;9.15;95.24
66096;SHT31;53861;53.422;14.530;2023-04-24T03:14:07;9.14;95.31
66096;SHT31;53861;53.422;14.530;2023-04-24T03:16:37;9.19;95.38
66096;SHT31;53861;53.422;14.530;2023-04-24T03:19:08;9.19;95.22
66096;SHT31;53861;53.422;14.530;2023-04-24T03:21:47;9.15;95.29
66096;SHT31;53861;53.422;14.530;2023-04-24T03:24:18;9.15;95.22
66096;SHT31;53861;53.422;14.530;2023-04-24T03:26:48;9.11;95.25
66096;SHT31;53861;53.422;14.530;2023-04-24T03:29:16;9.15;95.25
66096;SHT31;53861;53.422;14.530;2023-04-24T03:31:48;9.21;95.13
66096;SHT31;53861;53.422;14.530;2023-04-24T03:34:18;9.15;95.23
66096;SHT31;53861;53.422;14.530;2023-04-24T03:36:48;9.15;95.27
66096;SHT31;53861;53.422;14.530;2023-04-24T03:39:21;9.26;95.24
66096;SHT31;53861;53.422;14.530;2023-04-24T03:41:49;9.23;95.17
66096;SHT31;53861;53.422;14.530;2023-04-24T03:44:18;9.33;95.09
66096;SHT31;53861;53.422;14.530;2023-04-24T03:46:54;9.33;94.98
66096;SHT31;53861;53.422;14.530;2023-04-24T03:49:24;9.26;94.95
66096;SHT31;53861;53.422;14.530;2023-04-24T03:52:08;9.33;94.99
66096;SHT31;53861;53.422;14.530;2023-04-24T03:54:48;9.29;95.03
66096;SHT31;53861;53.422;14.530;2023-04-24T03:57:33;9.31;94.77
66096;SHT31;53861;53.422;14.530;2023-04-24T04:00:06;9.26;94.88
66096;SHT31;53861;53.422;14.530;2023-04-24T04:02:52;9.39;94.54
66096;SHT31;53861;53.422;14.530;2023-04-24T04:05:33;9.35;94.55
66096;SHT31;53861;53.422;14.530;2023-04-24T04:08:01;9.33;94.68
66096;SHT31;53861;53.422;14.530;2023-04-24T04:10:32;9.35;94.58
66096;SHT31;53861;53.422;14.530;2023-04-24T04:12:59;9.25;94.62
66096;SHT31;53861;53.422;14.530;2023-04-24T04:15:27;9.29;94.76
66096;SHT31;53861;53.422;14.530;2023-04-24T04:17:54;9.23;94.68
66096;SHT31;53861;53.422;14.530;2023-04-24T04:20:37;9.18;94.83
66096;SHT31;53861;53.422;14.530;2023-04-24T04:23:04;9.18;94.78
66096;SHT31;53861;53.422;14.530;2023-04-24T04:25:38;9.19;95.10
66096;SHT31;53861;53.422;14.530;2023-04-24T04:28:14;9.22;94.91
66096;SHT31;53861;53.422;14.530;2023-04-24T04:30:44;9.14;95.07
66096;SHT31;53861;53.422;14.530;2023-04-24T04:33:17;9.22;94.99
66096;SHT31;53861;53.422;14.530;2023-04-24T04:35:44;9.28;94.96
66096;SHT31;53861;53.422;14.530;2023-04-24T04:38:14;9.33;94.95
66096;SHT31;53861;53.422;14.530;2023-04-24T04:40:59;9.50;94.93
66096;SHT31;53861;53.422;14.530;2023-04-24T04:43:28;9.60;94.32
66096;SHT31;53861;53.422;14.530;2023-04-24T04:45:59;9.80;94.67
66096;SHT31;53861;53.422;14.530;2023-04-24T04:48:29;9.98;94.01
66096;SHT31;53861;53.422;14.530;2023-04-24T04:51:07;10.14;93.93
66096;SHT31;53861;53.422;14.530;2023-04-24T04:53:34;10.34;93.83
66096;SHT31;53861;53.422;14.530;2023-04-24T04:56:08;10.37;93.43
66096;SHT31;53861;53.422;14.530;2023-04-24T04:58:39;10.45;93.30
66096;SHT31;53861;53.422;14.530;2023-04-24T05:01:09;10.49;93.44
66096;SHT31;53861;53.422;14.530;2023-04-24T05:03:39;10.62;93.31
66096;SHT31;53861;53.422;14.530;2023-04-24T05:06:07;10.65;92.92
66096;SHT31;53861;53.422;14.530;2023-04-24T05:08:34;10.78;92.94
66096;SHT31;53861;53.422;14.530;2023-04-24T05:11:13;10.95;92.24
66096;SHT31;53861;53.422;14.530;2023-04-24T05:13:43;11.03;92.42
66096;SHT31;53861;53.422;14.530;2023-04-24T05:16:16;11.12;92.37
66096;SHT31;53861;53.422;14.530;2023-04-24T05:18:43;11.08;92.45
66096;SHT31;53861;53.422;14.530;2023-04-24T05:21:11;11.20;92.28
66096;SHT31;53861;53.422;14.530;2023-04-24T05:23:45;11.10;91.83
66096;SHT31;53861;53.422;14.530;2023-04-24T05:26:15;11.15;92.59
66096;SHT31;53861;53.422;14.530;2023-04-24T05:28:43;11.20;92.17
66096;SHT31;53861;53.422;14.530;2023-04-24T05:31:11;11.18;91.96
66096;SHT31;53861;53.422;14.530;2023-04-24T05:33:39;11.15;91.89
66096;SHT31;53861;53.422;14.530;2023-04-24T05:36:06;11.15;92.36
66096;SHT31;53861;53.422;14.530;2023-04-24T05:38:34;11.24;92.22
66096;SHT31;53861;53.422;14.530;2023-04-24T05:41:02;11.36;92.32
66096;SHT31;53861;53.422;14.530;2023-04-24T05:43:30;11.47;92.13
66096;SHT31;53861;53.422;14.530;2023-04-24T05:45:58;11.61;91.54
66096;SHT31;53861;53.422;14.530;2023-04-24T05:48:25;11.60;90.92
66096;SHT31;53861;53.422;14.530;2023-04-24T05:50:52;11.60;91.47
66096;SHT31;53861;53.422;14.530;2023-04-24T05:53:20;11.94;91.54
66096;SHT31;53861;53.422;14.530;2023-04-24T05:55:47;11.92;90.98
66096;SHT31;53861;53.422;14.530;2023-04-24T05:58:14;11.91;91.02
66096;SHT31;53861;53.422;14.530;2023-04-24T06:00:43;11.95;91.14
66096;SHT31;53861;53.422;14.530;2023-04-24T06:03:12;12.12;91.59
66096;SHT31;53861;53.422;14.530;2023-04-24T06:05:39;12.20;90.59
66096;SHT31;53861;53.422;14.530;2023-04-24T06:08:06;12.24;90.44
66096;SHT31;53861;53.422;14.530;2023-04-24T06:10:34;12.32;90.40
66096;SHT31;53861;53.422;14.530;2023-04-24T06:13:01;12.42;89.88
66096;SHT31;53861;53.422;14.530;2023-04-24T06:15:30;12.52;89.48
66096;SHT31;53861;53.422;14.530;2023-04-24T06:18:02;12.56;89.02
66096;SHT31;53861;53.422;14.530;2023-04-24T06:20:29;12.62;88.37
66096;SHT31;53861;53.422;14.530;2023-04-24T06:22:56;12.56;89.08
66096;SHT31;53861;53.422;14.530;2023-04-24T06:25:25;12.72;88.60
66096;SHT31;53861;53.422;14.530;2023-04-24T06:27:52;12.69;87.66
66096;SHT31;53861;53.422;14.530;2023-04-24T06:30:19;12.49;88.59
66096;SHT31;53861;53.422;14.530;2023-04-24T06:32:47;12.60;88.58
66096;SHT31;53861;53.422;14.530;2023-04-24T06:35:15;12.86;88.62
66096;SHT31;53861;53.422;14.530;2023-04-24T06:37:43;12.97;87.35
66096;SHT31;53861;53.422;14.530;2023-04-24T06:40:10;12.97;87.54
66096;SHT31;53861;53.422;14.530;2023-04-24T06:42:38;12.99;87.99
66096;SHT31;53861;53.422;14.530;2023-04-24T06:45:06;12.89;87.76
66096;SHT31;53861;53.422;14.530;2023-04-24T06:47:33;12.92;87.56
66096;SHT31;53861;53.422;14.530;2023-04-24T06:50:00;13.14;87.67
66096;SHT31;53861;53.422;14.530;2023-04-24T06:52:29;12.97;86.90
66096;SHT31;53861;53.422;14.530;2023-04-24T06:55:01;13.17;87.04
66096;SHT31;53861;53.422;14.530;2023-04-24T06:57:29;13.00;87.19
66096;SHT31;53861;53.422;14.530;2023-04-24T06:59:56;13.51;84.89
66096;SHT31;53861;53.422;14.530;2023-04-24T07:02:24;13.34;86.10
66096;SHT31;53861;53.422;14.530;2023-04-24T07:04:51;13.41;86.03
66096;SHT31;53861;53.422;14.530;2023-04-24T07:07:18;13.16;86.88
66096;SHT31;53861;53.422;14.530;2023-04-24T07:09:48;13.40;86.26
66096;SHT31;53861;53.422;14.530;2023-04-24T07:12:16;13.03;86.67
66096;SHT31;53861;53.422;14.530;2023-04-24T07:14:46;13.06;86.97
66096;SHT31;53861;53.422;14.530;2023-04-24T07:17:14;12.82;88.33
66096;SHT31;53861;53.422;14.530;2023-04-24T07:19:42;12.96;88.46
66096;SHT31;53861;53.422;14.530;2023-04-24T07:22:09;13.20;87.08
66096;SHT31;53861;53.422;14.530;2023-04-24T07:24:42;13.38;86.79
66096;SHT31;53861;53.422;14.530;2023-04-24T07:27:11;13.51;86.27
66096;SHT31;53861;53.422;14.530;2023-04-24T07:29:40;13.68;86.50
66096;SHT31;53861;53.422;14.530;2023-04-24T07:32:07;13.74;86.77
66096;SHT31;53861;53.422;14.530;2023-04-24T07:34:35;13.77;86.24
66096;SHT31;53861;53.422;14.530;2023-04-24T07:37:02;13.59;86.16
66096;SHT31;53861;53.422;14.530;2023-04-24T07:39:30;13.82;86.92
66096;SHT31;53861;53.422;14.530;2023-04-24T07:41:57;13.97;85.75
66096;SHT31;53861;53.422;14.530;2023-04-24T07:44:27;13.83;85.08
66096;SHT31;53861;53.422;14.530;2023-04-24T07:46:54;13.82;84.71
66096;SHT31;53861;53.422;14.530;2023-04-24T07:49:22;13.65;85.54
66096;SHT31;53861;53.422;14.530;2023-04-24T07:51:50;13.53;85.97
66096;SHT31;53861;53.422;14.530;2023-04-24T07:54:17;13.34;86.06
66096;SHT31;53861;53.422;14.530;2023-04-24T07:56:44;13.48;86.39
66096;SHT31;53861;53.422;14.530;2023-04-24T07:59:11;13.72;85.77
66096;SHT31;53861;53.422;14.530;2023-04-24T08:01:40;13.99;84.84
66096;SHT31;53861;53.422;14.530;2023-04-24T08:04:07;16.09;79.94
66096;SHT31;53861;53.422;14.530;2023-04-24T08:06:35;17.38;75.50
66096;SHT31;53861;53.422;14.530;2023-04-24T08:09:02;19.19;71.05
66096;SHT31;53861;53.422;14.530;2023-04-24T08:11:30;19.05;68.63
66096;SHT31;53861;53.422;14.530;2023-04-24T08:13:57;19.06;69.05
66096;SHT31;53861;53.422;14.530;2023-04-24T08:16:25;19.64;67.29
66096;SHT31;53861;53.422;14.530;2023-04-24T08:18:53;20.21;66.23
66096;SHT31;53861;53.422;14.530;2023-04-24T08:21:21;20.17;65.77
66096;SHT31;53861;53.422;14.530;2023-04-24T08:23:48;20.01;68.20
66096;SHT31;53861;53.422;14.530;2023-04-24T08:26:16;19.13;67.21
66096;SHT31;53861;53.422;14.530;2023-04-24T08:28:43;17.74;70.90
66096;SHT31;53861;53.422;14.530;2023-04-24T08:31:11;20.05;65.25
66096;SHT31;53861;53.422;14.530;2023-04-24T08:33:38;19.98;66.81
66096;SHT31;53861;53.422;14.530;2023-04-24T08:36:08;20.49;62.77
66096;SHT31;53861;53.422;14.530;2023-04-24T08:38:35;20.48;64.49
66096;SHT31;53861;53.422;14.530;2023-04-24T08:41:03;19.60;66.48
66096;SHT31;53861;53.422;14.530;2023-04-24T08:43:33;19.75;67.23
66096;SHT31;53861;53.422;14.530;2023-04-24T08:46:04;21.07;67.88
66096;SHT31;53861;53.422;14.530;2023-04-24T08:48:31;23.24;59.61
66096;SHT31;53861;53.422;14.530;2023-04-24T08:50:59;22.94;58.56
66096;SHT31;53861;53.422;14.530;2023-04-24T08:53:28;22.33;60.55
66096;SHT31;53861;53.422;14.530;2023-04-24T08:55:56;21.99;59.44
66096;SHT31;53861;53.422;14.530;2023-04-24T08:58:25;23.19;59.85
66096;SHT31;53861;53.422;14.530;2023-04-24T09:00:54;22.76;58.67
66096;SHT31;53861;53.422;14.530;2023-04-24T09:03:23;23.04;56.71
66096;SHT31;53861;53.422;14.530;2023-04-24T09:05:52;21.96;61.27
66096;SHT31;53861;53.422;14.530;2023-04-24T09:08:22;20.87;60.57
66096;SHT31;53861;53.422;14.530;2023-04-24T09:10:52;20.62;60.03
66096;SHT31;53861;53.422;14.530;2023-04-24T09:13:23;20.09;61.84
66096;SHT31;53861;53.422;14.530;2023-04-24T09:15:51;20.50;61.26
66096;SHT31;53861;53.422;14.530;2023-04-24T09:18:19;22.15;60.11
66096;SHT31;53861;53.422;14.530;2023-04-24T09:21:00;21.00;58.82
66096;SHT31;53861;53.422;14.530;2023-04-24T09:23:28;19.98;61.61
66096;SHT31;53861;53.422;14.530;2023-04-24T09:25:59;20.17;63.39
66096;SHT31;53861;53.422;14.530;2023-04-24T09:28:29;19.34;65.95
66096;SHT31;53861;53.422;14.530;2023-04-24T09:31:05;19.66;64.34
66096;SHT31;53861;53.422;14.530;2023-04-24T09:33:33;19.94;63.43
66096;SHT31;53861;53.422;14.530;2023-04-24T09:36:00;18.95;65.10
66096;SHT31;53861;53.422;14.530;2023-04-24T09:38:32;19.16;65.58
66096;SHT31;53861;53.422;14.530;2023-04-24T09:41:01;19.07;64.32
66096;SHT31;53861;53.422;14.530;2023-04-24T09:43:29;19.05;64.45
66096;SHT31;53861;53.422;14.530;2023-04-24T09:45:58;18.65;64.23
66096;SHT31;53861;53.422;14.530;2023-04-24T09:48:33;18.81;64.12
66096;SHT31;53861;53.422;14.530;2023-04-24T09:51:01;19.22;65.61
66096;SHT31;53861;53.422;14.530;2023-04-24T09:53:30;18.91;63.16
66096;SHT31;53861;53.422;14.530;2023-04-24T09:56:07;19.36;65.70
66096;SHT31;53861;53.422;14.530;2023-04-24T09:58:35;21.01;63.39
66096;SHT31;53861;53.422;14.530;2023-04-24T10:01:03;21.59;58.35
66096;SHT31;53861;53.422;14.530;2023-04-24T10:03:31;22.16;59.49
66096;SHT31;53861;53.422;14.530;2023-04-24T10:05:59;22.08;56.94
66096;SHT31;53861;53.422;14.530;2023-04-24T10:08:26;20.30;59.49
66096;SHT31;53861;53.422;14.530;2023-04-24T10:11:00;21.30;59.19
66096;SHT31;53861;53.422;14.530;2023-04-24T10:13:29;21.19;58.06
66096;SHT31;53861;53.422;14.530;2023-04-24T10:15:59;20.25;60.27
66096;SHT31;53861;53.422;14.530;2023-04-24T10:18:27;19.61;61.72
66096;SHT31;53861;53.422;14.530;2023-04-24T10:20:55;19.49;62.71
66096;SHT31;53861;53.422;14.530;2023-04-24T10:23:24;19.84;61.39
66096;SHT31;53861;53.422;14.530;2023-04-24T10:25:52;19.37;63.26
66096;SHT31;53861;53.422;14.530;2023-04-24T10:28:20;19.54;63.78
66096;SHT31;53861;53.422;14.530;2023-04-24T10:30:49;20.30;62.45
66096;SHT31;53861;53.422;14.530;2023-04-24T10:33:17;20.07;61.52
66096;SHT31;53861;53.422;14.530;2023-04-24T10:35:47;20.35;61.68
66096;SHT31;53861;53.422;14.530;2023-04-24T10:38:18;19.68;61.29
66096;SHT31;53861;53.422;14.530;2023-04-24T10:40:50;19.67;61.69
66096;SHT31;53861;53.422;14.530;2023-04-24T10:43:18;19.51;62.57
66096;SHT31;53861;53.422;14.530;2023-04-24T10:46:03;19.49;62.15
66096;SHT31;53861;53.422;14.530;2023-04-24T10:48:31;19.28;63.20
66096;SHT31;53861;53.422;14.530;2023-04-24T10:50:58;19.74;61.87
66096;SHT31;53861;53.422;14.530;2023-04-24T10:53:28;19.67;63.70
66096;SHT31;53861;53.422;14.530;2023-04-24T10:56:02;19.77;60.81
66096;SHT31;53861;53.422;14.530;2023-04-24T10:58:37;19.99;62.62
66096;SHT31;53861;53.422;14.530;2023-04-24T11:01:07;19.58;61.93
66096;SHT31;53861;53.422;14.530;2023-04-24T11:03:35;19.68;61.44
66096;SHT31;53861;53.422;14.530;2023-04-24T11:06:05;19.54;62.55
66096;SHT31;53861;53.422;14.530;2023-04-24T11:08:38;19.50;63.73
66096;SHT31;53861;53.422;14.530;2023-04-24T11:11:10;19.81;62.98
66096;SHT31;53861;53.422;14.530;2023-04-24T11:14:06;19.87;63.41
66096;SHT31;53861;53.422;14.530;2023-04-24T11:16:38;19.63;61.21
66096;SHT31;53861;53.422;14.530;2023-04-24T11:19:06;19.88;61.44
66096;SHT31;53861;53.422;14.530;2023-04-24T11:21:41;19.50;62.70
66096;SHT31;53861;53.422;14.530;2023-04-24T11:24:26;19.82;61.98
66096;SHT31;53861;53.422;14.530;2023-04-24T11:26:55;20.36;57.15
66096;SHT31;53861;53.422;14.530;2023-04-24T11:29:38;19.87;59.89
66096;SHT31;53861;53.422;14.530;2023-04-24T11:32:18;19.73;59.70
66096;SHT31;53861;53.422;14.530;2023-04-24T11:34:52;21.14;59.57
66096;SHT31;53861;53.422;14.530;2023-04-24T11:37:20;20.33;59.34
66096;SHT31;53861;53.422;14.530;2023-04-24T11:39:50;20.77;60.20
66096;SHT31;53861;53.422;14.530;2023-04-24T11:42:18;20.33;59.00
66096;SHT31;53861;53.422;14.530;2023-04-24T11:44:46;20.04;59.68
66096;SHT31;53861;53.422;14.530;2023-04-24T11:47:13;20.32;59.90
66096;SHT31;53861;53.422;14.530;2023-04-24T11:49:42;20.55;58.34
66096;SHT31;53861;53.422;14.530;2023-04-24T11:52:09;20.12;60.27
66096;SHT31;53861;53.422;14.530;2023-04-24T11:54:37;19.70;61.15
66096;SHT31;53861;53.422;14.530;2023-04-24T11:57:05;19.07;62.10
66096;SHT31;53861;53.422;14.530;2023-04-24T11:59:36;18.52;62.54
66096;SHT31;53861;53.422;14.530;2023-04-24T12:02:04;18.76;62.67
66096;SHT31;53861;53.422;14.530;2023-04-24T12:04:39;18.89;62.02
66096;SHT31;53861;53.422;14.530;2023-04-24T12:07:08;18.81;62.30
66096;SHT31;53861;53.422;14.530;2023-04-24T12:09:42;19.17;61.40
66096;SHT31;53861;53.422;14.530;2023-04-24T12:12:13;19.00;61.10
66096;SHT31;53861;53.422;14.530;2023-04-24T12:14:44;19.75;59.88
66096;SHT31;53861;53.422;14.530;2023-04-24T12:17:12;19.54;58.69
66096;SHT31;53861;53.422;14.530;2023-04-24T12:19:45;21.24;55.27
66096;SHT31;53861;53.422;14.530;2023-04-24T12:22:14;23.38;51.68
66096;SHT31;53861;53.422;14.530;2023-04-24T12:25:01;22.23;53.95
66096;SHT31;53861;53.422;14.530;2023-04-24T12:27:31;22.53;51.70
66096;SHT31;53861;53.422;14.530;2023-04-24T12:30:05;20.79;54.81
66096;SHT31;53861;53.422;14.530;2023-04-24T12:32:32;19.64;57.41
66096;SHT31;53861;53.422;14.530;2023-04-24T12:34:59;19.77;57.66
66096;SHT31;53861;53.422;14.530;2023-04-24T12:37:33;19.60;58.66
66096;SHT31;53861;53.422;14.530;2023-04-24T12:40:05;19.61;59.10
66096;SHT31;53861;53.422;14.530;2023-04-24T12:42:35;20.43;58.58
66096;SHT31;53861;53.422;14.530;2023-04-24T12:45:03;22.20;55.83
66096;SHT31;53861;53.422;14.530;2023-04-24T12:47:32;22.94;55.10
66096;SHT31;53861;53.422;14.530;2023-04-24T12:49:59;21.37;53.84
66096;SHT31;53861;53.422;14.530;2023-04-24T12:52:28;20.19;56.26
66096;SHT31;53861;53.422;14.530;2023-04-24T12:54:58;19.87;56.62
66096;SHT31;53861;53.422;14.530;2023-04-24T12:57:26;20.08;56.46
66096;SHT31;53861;53.422;14.530;2023-04-24T12:59:54;19.60;57.04
66096;SHT31;53861;53.422;14.530;2023-04-24T13:02:22;19.44;58.16
66096;SHT31;53861;53.422;14.530;2023-04-24T13:04:49;19.50;57.96
66096;SHT31;53861;53.422;14.530;2023-04-24T13:07:17;19.82;58.26
66096;SHT31;53861;53.422;14.530;2023-04-24T13:09:45;19.85;57.56
66096;SHT31;53861;53.422;14.530;2023-04-24T13:12:14;20.17;58.60
66096;SHT31;53861;53.422;14.530;2023-04-24T13:14:41;20.07;57.60
66096;SHT31;53861;53.422;14.530;2023-04-24T13:17:08;20.26;56.80
66096;SHT31;53861;53.422;14.530;2023-04-24T13:19:38;20.01;56.91
66096;SHT31;53861;53.422;14.530;2023-04-24T13:22:06;19.77;57.59
66096;SHT31;53861;53.422;14.530;2023-04-24T13:24:34;19.89;57.20
66096;SHT31;53861;53.422;14.530;2023-04-24T13:27:01;19.37;57.40
66096;SHT31;53861;53.422;14.530;2023-04-24T13:29:30;19.70;59.02
66096;SHT31;53861;53.422;14.530;2023-04-24T13:31:57;19.77;57.00
66096;SHT31;53861;53.422;14.530;2023-04-24T13:34:25;19.82;56.48
66096;SHT31;53861;53.422;14.530;2023-04-24T13:36:54;19.54;58.77
66096;SHT31;53861;53.422;14.530;2023-04-24T13:39:22;19.82;55.87
66096;SHT31;53861;53.422;14.530;2023-04-24T13:41:50;20.25;57.26
66096;SHT31;53861;53.422;14.530;2023-04-24T13:44:18;19.92;57.99
66096;SHT31;53861;53.422;14.530;2023-04-24T13:46:49;20.01;56.72
66096;SHT31;53861;53.422;14.530;2023-04-24T13:49:18;19.63;57.75
66096;SHT31;53861;53.422;14.530;2023-04-24T13:51:45;19.63;55.95
66096;SHT31;53861;53.422;14.530;2023-04-24T13:54:12;19.64;57.83
66096;SHT31;53861;53.422;14.530;2023-04-24T13:56:40;19.41;55.11
66096;SHT31;53861;53.422;14.530;2023-04-24T13:59:07;19.10;55.60
66096;SHT31;53861;53.422;14.530;2023-04-24T14:01:35;19.66;55.04
66096;SHT31;53861;53.422;14.530;2023-04-24T14:04:03;20.09;53.39
66096;SHT31;53861;53.422;14.530;2023-04-24T14:06:31;19.99;53.91
66096;SHT31;53861;53.422;14.530;2023-04-24T14:08:58;20.35;53.74
66096;SHT31;53861;53.422;14.530;2023-04-24T14:11:26;21.23;54.47
66096;SHT31;53861;53.422;14.530;2023-04-24T14:13:54;20.76;52.96
66096;SHT31;53861;53.422;14.530;2023-04-24T14:16:22;20.32;54.83
66096;SHT31;53861;53.422;14.530;2023-04-24T14:18:49;19.43;54.81
66096;SHT31;53861;53.422;14.530;2023-04-24T14:21:18;19.10;56.28
66096;SHT31;53861;53.422;14.530;2023-04-24T14:23:45;18.61;57.29
66096;SHT31;53861;53.422;14.530;2023-04-24T14:26:13;17.02;63.22
66096;SHT31;53861;53.422;14.530;2023-04-24T14:28:40;16.41;66.47
66096;SHT31;53861;53.422;14.530;2023-04-24T14:31:07;16.30;67.68
66096;SHT31;53861;53.422;14.530;2023-04-24T14:33:35;15.46;69.66
66096;SHT31;53861;53.422;14.530;2023-04-24T14:39:24;15.02;75.01
66096;SHT31;53861;53.422;14.530;2023-04-24T14:43:05;14.84;74.58
66096;SHT31;53861;53.422;14.530;2023-04-24T14:45:36;14.92;73.99
66096;SHT31;53861;53.422;14.530;2023-04-24T14:51:28;14.97;74.15
66096;SHT31;53861;53.422;14.530;2023-04-24T14:54:02;15.01;75.15
66096;SHT31;53861;53.422;14.530;2023-04-24T14:56:44;14.84;76.30
66096;SHT31;53861;53.422;14.530;2023-04-24T14:59:35;15.08;75.95
66096;SHT31;53861;53.422;14.530;2023-04-24T15:05:42;15.44;76.33
66096;SHT31;53861;53.422;14.530;2023-04-24T15:11:16;15.85;70.01
66096;SHT31;53861;53.422;14.530;2023-04-24T15:14:12;15.92;68.62
66096;SHT31;53861;53.422;14.530;2023-04-24T15:16:50;15.90;67.03
66096;SHT31;53861;53.422;14.530;2023-04-24T15:19:24;15.42;68.08
66096;SHT31;53861;53.422;14.530;2023-04-24T15:21:57;15.22;68.73
66096;SHT31;53861;53.422;14.530;2023-04-24T15:28:05;15.07;68.91
66096;SHT31;53861;53.422;14.530;2023-04-24T15:38:37;15.07;68.98
66096;SHT31;53861;53.422;14.530;2023-04-24T15:41:24;15.12;69.68
66096;SHT31;53861;53.422;14.530;2023-04-24T15:54:05;14.76;69.09
66096;SHT31;53861;53.422;14.530;2023-04-24T15:56:38;14.77;69.15
66096;SHT31;53861;53.422;14.530;2023-04-24T16:09:19;15.04;66.44
66096;SHT31;53861;53.422;14.530;2023-04-24T16:11:50;15.01;68.53
66096;SHT31;53861;53.422;14.530;2023-04-24T16:14:39;15.22;67.73
66096;SHT31;53861;53.422;14.530;2023-04-24T16:17:11;15.07;66.76
66096;SHT31;53861;53.422;14.530;2023-04-24T16:19:42;15.07;66.99
66096;SHT31;53861;53.422;14.530;2023-04-24T16:22:37;15.05;67.96
66096;SHT31;53861;53.422;14.530;2023-04-24T16:31:36;14.85;67.76
66096;SHT31;53861;53.422;14.530;2023-04-24T16:34:09;14.94;67.09